Time;durP1;ratioP1;P1;durP2;ratioP2;P2;SDS_P1;SDS_P2;PMS_P1;PMS_P2;Temp;Humidity;BMP_temperature;BMP_pressure;BME280_temperature;BME280_humidity;BME280_pressure;Samples;Min_cycle;Max_cycle;Signal;HPM_P1;HPM_P2
2022/10/04 00:00:25;;;;;;;0.80;0.80;;;4.90;99.90;;;4.40;100.00;97451.84;5060849;27;119601;-72
2022/10/04 00:03:02;;;;;;;0.85;0.80;;;4.90;99.90;;;4.38;100.00;97459.41;5060184;27;129733;-76
2022/10/04 00:05:31;;;;;;;0.77;0.70;;;4.90;99.90;;;4.38;100.00;97451.38;5044880;27;128643;-72
2022/10/04 00:08:08;;;;;;;0.70;0.70;;;4.90;99.90;;;4.38;100.00;97448.69;5049423;27;119616;-74
2022/10/04 00:10:36;;;;;;;;;;;4.90;99.90;;;4.46;100.00;97451.34;5040682;27;120040;-77
2022/10/04 00:13:14;;;;;;;0.98;0.88;;;4.90;99.90;;;4.43;100.00;97445.84;5039692;27;129933;-72
2022/10/04 00:15:49;;;;;;;1.55;0.90;;;4.90;99.90;;;4.45;100.00;97448.97;5039665;27;129604;-75
2022/10/04 00:18:28;;;;;;;0.95;0.88;;;4.90;99.90;;;4.47;100.00;97450.25;5038679;27;121907;-74
2022/10/04 00:21:04;;;;;;;1.42;0.90;;;4.90;99.90;;;4.53;100.00;97447.38;5024912;27;121888;-77
2022/10/04 00:23:46;;;;;;;1.30;0.80;;;5.00;99.90;;;4.58;100.00;97453.38;5039567;27;130468;-71
2022/10/04 00:27:09;;;;;;;1.00;0.90;;;5.00;99.90;;;4.54;100.00;97454.34;5039477;27;129599;-75
2022/10/04 00:29:41;;;;;;;1.00;0.88;;;5.00;99.90;;;4.58;100.00;97455.25;5048986;27;119360;-70
2022/10/04 00:32:28;;;;;;;1.67;0.80;;;5.00;99.90;;;4.62;100.00;97453.50;5060099;27;120303;-76
2022/10/04 00:34:59;;;;;;;1.92;1.13;;;5.00;99.90;;;4.65;100.00;97459.03;5059534;27;130240;-73
2022/10/04 00:37:48;;;;;;;0.95;0.77;;;5.00;99.90;;;4.68;100.00;97462.97;5059868;27;129985;-73
2022/10/04 00:40:20;;;;;;;1.10;0.88;;;5.00;99.90;;;4.68;100.00;97466.44;5062891;27;119544;-73
2022/10/04 00:42:57;;;;;;;1.58;0.95;;;5.00;99.90;;;4.72;100.00;97457.72;5063541;27;119058;-73
2022/10/04 00:45:37;;;;;;;1.33;1.05;;;5.10;99.90;;;4.63;100.00;97465.84;5060910;27;130836;-74
2022/10/04 00:48:34;;;;;;;2.22;1.00;;;5.10;99.90;;;4.63;100.00;97466.63;5063230;27;129686;-73
2022/10/04 00:51:19;;;;;;;0.98;0.90;;;5.10;99.90;;;4.68;100.00;97463.75;5048511;27;118750;-76
2022/10/04 00:53:59;;;;;;;2.53;1.10;;;5.10;99.90;;;4.73;100.00;97470.06;5063156;27;119453;-72
2022/10/04 00:56:35;;;;;;;1.13;1.00;;;5.10;99.90;;;4.74;100.00;97467.06;5044313;27;128920;-73
2022/10/04 00:59:29;;;;;;;1.05;0.85;;;5.10;99.90;;;4.74;100.00;97472.44;5061414;27;129423;-71
2022/10/04 01:02:02;;;;;;;1.67;1.10;;;5.10;99.90;;;4.79;100.00;97476.84;5063204;27;119544;-71
2022/10/04 01:04:42;;;;;;;1.25;1.00;;;5.00;99.90;;;4.75;100.00;97474.00;5063773;27;119317;-73
2022/10/04 01:07:14;;;;;;;1.58;1.02;;;5.10;99.90;;;4.74;100.00;97467.06;5063276;27;130156;-73
2022/10/04 01:09:52;;;;;;;1.40;1.00;;;5.10;99.90;;;4.73;100.00;97470.06;5062931;27;129449;-74
2022/10/04 01:12:45;;;;;;;1.38;1.15;;;5.10;99.90;;;4.64;100.00;97468.22;5065961;27;103211;-73
2022/10/04 01:15:23;;;;;;;1.77;1.10;;;5.10;99.90;;;4.61;100.00;97471.53;5065689;27;121387;-71
2022/10/04 01:18:11;;;;;;;1.23;1.02;;;5.10;99.90;;;4.59;100.00;97481.81;5062654;27;129650;-73
2022/10/04 01:20:53;;;;;;;2.10;1.10;;;5.00;99.90;;;4.58;100.00;97491.00;5061445;27;129444;-71
2022/10/04 01:23:44;;;;;;;1.75;1.20;;;5.00;99.90;;;4.58;100.00;97482.13;5062721;27;119750;-72
2022/10/04 01:26:40;;;;;;;2.03;1.13;;;5.00;99.90;;;4.57;100.00;97485.94;5063068;27;119422;-74
2022/10/04 01:29:16;;;;;;;0.80;0.80;;;5.00;99.90;;;4.54;100.00;97483.88;5062526;27;131585;-74
2022/10/04 01:31:47;;;;;;;1.20;0.93;;;5.00;99.90;;;4.52;100.00;97489.59;5047215;27;128807;-72
2022/10/04 01:34:18;;;;;;;1.33;1.10;;;5.00;99.90;;;4.55;100.00;97493.50;5062746;27;119586;-73
2022/10/04 01:36:48;;;;;;;1.15;1.00;;;5.00;99.90;;;4.54;100.00;97495.41;5062747;27;119782;-73
2022/10/04 01:39:21;;;;;;;1.15;1.05;;;5.00;99.90;;;4.46;100.00;97488.19;5060881;27;131019;-72
2022/10/04 01:41:57;;;;;;;1.05;0.90;;;5.00;99.90;;;4.47;100.00;97492.41;5047043;27;128181;-70
2022/10/04 01:44:39;;;;;;;1.20;0.80;;;4.90;99.90;;;4.50;100.00;97497.16;5062539;27;119940;-73
2022/10/04 01:47:14;;;;;;;0.98;0.80;;;4.90;99.90;;;4.51;100.00;97514.84;5044175;27;119849;-73
2022/10/04 01:49:45;;;;;;;0.80;0.80;;;4.90;99.90;;;4.47;100.00;97511.22;5047140;27;129375;-71
2022/10/04 01:52:21;;;;;;;1.00;0.80;;;4.90;99.90;;;4.45;100.00;97502.72;5061766;27;129539;-70
2022/10/04 01:54:59;;;;;;;1.48;1.00;;;4.80;99.90;;;4.35;100.00;97508.41;5062377;27;119713;-69
2022/10/04 01:57:35;;;;;;;1.15;0.90;;;4.80;99.90;;;4.27;100.00;97518.06;5062741;27;119638;-75
2022/10/04 02:00:07;;;;;;;2.70;0.85;;;4.70;99.90;;;4.29;100.00;97516.63;5061919;27;129906;-70
2022/10/04 02:02:41;;;;;;;0.75;0.75;;;4.70;99.90;;;4.34;100.00;97520.28;5061802;27;129770;-70
2022/10/04 02:05:16;;;;;;;1.10;0.90;;;4.70;99.90;;;4.24;100.00;97524.88;5062330;27;121983;-73
2022/10/04 02:07:47;;;;;;;1.40;0.90;;;4.60;99.90;;;4.28;100.00;97515.03;5062177;27;121850;-72
2022/10/04 02:10:21;;;;;;;0.70;0.70;;;4.60;99.90;;;4.32;100.00;97518.69;5061785;27;129814;-72
2022/10/04 02:12:53;;;;;;;1.38;0.82;;;4.60;99.90;;;4.23;100.00;97525.97;5061741;27;130137;-69
2022/10/04 02:15:25;;;;;;;1.35;0.90;;;4.60;99.90;;;4.14;100.00;97514.44;5062095;27;119564;-73
2022/10/04 02:17:55;;;;;;;1.15;0.90;;;4.60;99.90;;;4.23;100.00;97517.91;5062388;27;119949;-71
2022/10/04 02:20:26;;;;;;;0.73;0.73;;;4.60;99.90;;;4.21;100.00;97522.81;5061591;27;130013;-72
2022/10/04 02:23:01;;;;;;;1.33;0.90;;;4.60;99.90;;;4.19;100.00;97519.66;5047053;27;129002;-75
2022/10/04 02:25:31;;;;;;;1.23;0.90;;;4.70;99.90;;;4.22;100.00;97527.06;5061857;27;119701;-72
2022/10/04 02:28:00;;;;;;;1.30;0.90;;;4.70;99.90;;;4.22;100.00;97527.06;5046810;27;118614;-73
2022/10/04 02:30:29;;;;;;;0.77;0.77;;;4.70;99.90;;;4.19;100.00;97525.03;5060585;27;130079;-72
2022/10/04 02:32:58;;;;;;;1.27;0.80;;;4.70;99.90;;;4.22;100.00;97537.03;5061408;27;129449;-73
2022/10/04 02:35:34;;;;;;;0.90;0.90;;;4.70;99.90;;;4.26;100.00;97533.38;5061635;27;119674;-72
2022/10/04 02:38:10;;;;;;;1.35;0.93;;;4.70;99.90;;;4.23;100.00;97536.69;5061938;27;119453;-76
2022/10/04 02:40:48;;;;;;;1.25;0.90;;;4.80;99.90;;;4.25;100.00;97541.75;5046503;27;129667;-73
2022/10/04 02:43:22;;;;;;;1.90;1.30;;;4.80;99.90;;;4.28;100.00;97541.91;5061495;27;129886;-73
2022/10/04 02:45:55;;;;;;;1.70;1.15;;;4.80;99.90;;;4.28;100.00;97541.13;5043231;27;119654;-73
2022/10/04 02:48:37;;;;;;;1.00;0.90;;;4.80;99.90;;;4.37;100.00;97544.59;5061938;27;119259;-74
2022/10/04 02:51:20;;;;;;;1.48;1.00;;;4.80;99.90;;;4.35;100.00;97544.13;5061272;27;129963;-72
2022/10/04 02:54:07;;;;;;;1.42;1.00;;;4.90;99.90;;;4.34;100.00;97545.22;5046340;27;128797;-73
2022/10/04 02:56:38;;;;;;;3.25;1.30;;;4.90;99.90;;;4.40;100.00;97538.56;5060152;27;121952;-75
2022/10/04 02:59:15;;;;;;;2.25;1.17;;;4.90;99.90;;;4.37;100.00;97536.53;5061262;27;121990;-73
2022/10/04 03:01:52;;;;;;;1.00;0.80;;;4.90;99.90;;;4.39;100.00;97536.22;5060688;27;129934;-72
2022/10/04 03:04:25;;;;;;;1.30;0.98;;;5.00;99.90;;;4.42;100.00;97547.09;5060294;27;129725;-76
2022/10/04 03:06:55;;;;;;;1.15;1.00;;;5.00;99.90;;;4.42;100.00;97552.47;5061369;27;119714;-74
2022/10/04 03:09:25;;;;;;;1.10;1.00;;;5.00;99.90;;;4.43;100.00;97547.91;5046439;27;118645;-72
2022/10/04 03:11:55;;;;;;;3.17;1.33;;;5.00;99.90;;;4.45;100.00;97551.06;5045914;27;129430;-73
2022/10/04 03:14:28;;;;;;;1.00;0.90;;;5.00;99.90;;;4.47;100.00;97556.88;5061818;27;130340;-76
2022/10/04 03:17:00;;;;;;;1.50;1.00;;;5.00;99.90;;;4.53;100.00;97552.16;5061714;27;120117;-73
2022/10/04 03:19:32;;;;;;;2.10;1.17;;;5.10;99.90;;;4.53;100.00;97558.31;5061718;27;119337;-73
2022/10/04 03:22:03;;;;;;;1.10;1.00;;;5.00;99.90;;;4.55;100.00;97545.34;5059490;27;129802;-76
2022/10/04 03:24:34;;;;;;;1.30;1.10;;;5.10;99.90;;;4.56;100.00;97557.66;5059856;27;129987;-73
2022/10/04 03:27:08;;;;;;;1.25;1.15;;;5.10;99.90;;;4.55;100.00;97553.41;5061178;27;119801;-74
2022/10/04 03:29:43;;;;;;;1.98;1.20;;;5.10;99.90;;;4.60;100.00;97566.69;5061034;27;119860;-75
2022/10/04 03:32:15;;;;;;;1.90;1.10;;;5.10;99.90;;;4.60;100.00;97557.84;5061028;27;130606;-72
2022/10/04 03:34:53;;;;;;;1.42;1.10;;;5.10;99.90;;;4.61;100.00;97570.94;5046150;27;129827;-75
2022/10/04 03:37:22;;;;;;;3.28;1.05;;;5.10;99.90;;;4.65;100.00;97569.19;5046361;27;119380;-73
2022/10/04 03:39:54;;;;;;;1.20;0.95;;;5.10;99.90;;;4.61;100.00;97570.94;5040239;27;119788;-72
2022/10/04 03:42:26;;;;;;;1.67;1.13;;;5.10;99.90;;;4.65;100.00;97571.09;5060783;27;130327;-75
2022/10/04 03:44:57;;;;;;;1.80;1.20;;;5.10;99.90;;;4.75;100.00;97567.28;5060869;27;130861;-75
2022/10/04 03:47:31;;;;;;;2.60;1.33;;;5.10;99.90;;;4.74;100.00;97565.72;5059007;27;121714;-75
2022/10/04 03:50:07;;;;;;;3.35;1.50;;;5.10;99.90;;;4.71;100.00;97574.41;5060663;27;120925;-73
2022/10/04 03:52:37;;;;;;;2.83;1.42;;;5.20;99.90;;;4.70;100.00;97578.19;5060293;27;129831;-71
2022/10/04 03:55:08;;;;;;;1.98;1.10;;;5.20;99.90;;;4.70;100.00;97572.81;5062869;27;128618;-73
2022/10/04 03:57:40;;;;;;;2.17;1.40;;;5.20;99.90;;;4.66;100.00;97573.47;5044566;27;118312;-71
2022/10/04 04:00:13;;;;;;;1.88;1.20;;;5.20;99.90;;;4.77;100.00;97583.84;5060564;27;119815;-72
2022/10/04 04:02:46;;;;;;;3.50;1.30;;;5.20;99.90;;;4.82;100.00;97583.72;5059507;27;130435;-70
2022/10/04 04:05:24;;;;;;;2.95;1.35;;;5.20;99.90;;;4.74;100.00;97571.09;5044730;27;129028;-70
2022/10/04 04:08:12;;;;;;;1.73;1.20;;;5.20;99.90;;;4.78;100.00;97588.13;5058454;27;119596;-73
2022/10/04 04:10:46;;;;;;;3.78;1.52;;;5.20;99.90;;;4.80;100.00;97585.91;5028895;27;118419;-72
2022/10/04 04:13:26;;;;;;;1.40;1.17;;;5.20;99.90;;;4.81;100.00;97595.56;5058838;27;130500;-72
2022/10/04 04:15:56;;;;;;;2.15;1.20;;;5.30;99.90;;;4.89;100.00;97592.03;5062266;27;130342;-70
2022/10/04 04:18:29;;;;;;;1.88;1.20;;;5.30;99.90;;;4.91;100.00;97597.09;5063736;27;119518;-71
2022/10/04 04:21:01;;;;;;;1.95;1.20;;;5.30;99.90;;;4.90;100.00;97599.00;5064036;27;120046;-72
2022/10/04 04:23:34;;;;;;;1.55;1.10;;;5.30;99.90;;;4.93;100.00;97605.66;5063689;27;130369;-73
2022/10/04 04:26:23;;;;;;;2.58;1.30;;;5.30;99.90;;;4.92;100.00;97607.53;5064034;27;130607;-77
2022/10/04 04:28:57;;;;;;;1.45;1.10;;;5.30;99.90;;;4.95;100.00;97603.44;5063297;27;120330;-76
2022/10/04 04:31:32;;;;;;;2.67;1.20;;;5.40;99.90;;;4.96;100.00;97608.47;5049360;27;119105;-77
2022/10/04 04:34:03;;;;;;;1.92;1.05;;;5.40;99.90;;;5.01;100.00;97605.63;5045826;27;130116;-73
2022/10/04 04:36:40;;;;;;;1.13;0.90;;;5.40;99.90;;;4.94;100.00;97605.34;5046246;27;129418;-77
2022/10/04 04:42:05;;;;;;;1.98;1.10;;;5.40;99.90;;;5.01;100.00;97615.59;5063156;27;122421;-73
2022/10/04 04:44:37;;;;;;;1.77;1.10;;;5.50;99.90;;;5.04;100.00;97615.72;5063292;27;129875;-73
2022/10/04 04:47:10;;;;;;;1.55;1.10;;;5.50;99.90;;;5.07;100.00;97641.19;5031554;27;128275;-74
2022/10/04 04:49:40;;;;;;;1.58;1.10;;;5.50;99.90;;;5.10;100.00;97626.34;5045512;27;119124;-75
2022/10/04 04:52:17;;;;;;;2.00;1.25;;;5.50;99.90;;;5.15;100.00;97631.53;5042925;27;119530;-71
2022/10/04 04:54:46;;;;;;;2.05;1.25;;;5.50;99.90;;;5.18;100.00;97631.66;5024441;27;130285;-70
2022/10/04 04:57:17;;;;;;;1.73;1.13;;;5.50;99.90;;;5.20;100.00;97640.22;5043254;27;129525;-74
2022/10/04 04:59:54;;;;;;;1.58;1.15;;;5.50;99.90;;;5.23;100.00;97649.53;5042447;27;120075;-70
2022/10/04 05:02:33;;;;;;;2.50;1.10;;;5.60;99.90;;;5.22;100.00;97647.97;5043072;27;119337;-73
2022/10/04 05:05:27;;;;;;;1.38;1.00;;;5.60;99.90;;;5.19;100.00;97648.59;5024088;27;129849;-73
2022/10/04 05:08:16;;;;;;;1.40;1.10;;;5.60;99.90;;;5.25;100.00;97658.09;5025601;27;129428;-74
2022/10/04 05:10:50;;;;;;;1.52;1.15;;;5.60;99.90;;;5.24;100.00;97658.41;5025414;27;119598;-71
2022/10/04 05:13:19;;;;;;;1.10;1.00;;;5.60;99.90;;;5.29;100.00;97659.00;5042854;27;119223;-74
2022/10/04 05:15:53;;;;;;;4.00;1.30;;;5.60;99.90;;;5.31;100.00;97656.78;5043212;27;129860;-74
2022/10/04 05:18:32;;;;;;;1.48;1.08;;;5.70;99.90;;;5.39;100.00;97658.66;5042731;27;128811;-73
2022/10/04 05:21:12;;;;;;;1.25;1.00;;;5.70;99.90;;;5.54;100.00;97664.63;5027113;27;118557;-74
2022/10/04 05:23:40;;;;;;;1.73;1.08;;;5.70;99.90;;;5.56;100.00;97667.78;5024798;27;120121;-71
2022/10/04 05:26:13;;;;;;;1.75;1.00;;;5.80;99.90;;;5.61;100.00;97673.00;5042362;27;130470;-73
2022/10/04 05:28:42;;;;;;;2.13;1.10;;;5.80;99.90;;;5.64;100.00;97669.66;5042992;27;129487;-75
2022/10/04 05:31:32;;;;;;;1.13;1.00;;;5.80;99.90;;;5.65;100.00;97671.22;5040166;27;122615;-74
2022/10/04 05:34:01;;;;;;;1.38;1.00;;;5.80;99.90;;;5.54;100.00;97680.75;5042688;27;122036;-73
2022/10/04 05:37:15;;;;;;;1.55;1.10;;;5.70;99.90;;;5.52;100.00;97683.78;5042228;27;130292;-73
2022/10/04 05:39:50;;;;;;;2.35;1.17;;;5.70;99.90;;;5.52;100.00;97688.38;5037847;27;129684;-73
2022/10/04 05:42:26;;;;;;;1.27;1.00;;;5.70;99.90;;;5.51;100.00;97684.09;5041259;27;120539;-73
2022/10/04 05:44:56;;;;;;;1.50;1.10;;;5.70;99.90;;;5.63;100.00;97691.50;5042168;27;119499;-73
2022/10/04 05:47:30;;;;;;;1.77;1.10;;;5.80;99.90;;;5.76;100.00;97699.38;5042020;27;130023;-73
2022/10/04 05:50:00;;;;;;;2.85;1.10;;;5.80;99.90;;;5.79;100.00;97700.59;5042366;27;130501;-72
2022/10/04 05:52:34;;;;;;;2.15;1.17;;;5.90;99.90;;;5.90;100.00;97701.03;5042764;27;119710;-73
2022/10/04 05:55:27;;;;;;;1.98;1.20;;;5.90;99.90;;;5.92;100.00;97712.25;5042172;27;119366;-74
2022/10/04 05:58:39;;;;;;;1.40;1.10;;;5.90;99.90;;;5.87;100.00;97712.44;5040537;27;130427;-74
2022/10/04 06:01:33;;;;;;;1.23;0.93;;;5.90;99.90;;;5.87;100.00;97723.22;5041062;27;129732;-73
2022/10/04 06:04:48;;;;;;;1.77;1.10;;;5.80;99.90;;;5.83;100.00;97719.59;5042180;27;119765;-73
2022/10/04 06:07:25;;;;;;;2.55;1.23;;;5.80;99.90;;;6.04;100.00;97730.47;5023759;27;119397;-72
2022/10/04 06:10:17;;;;;;;1.27;1.02;;;5.90;99.90;;;6.08;100.00;97737.56;5043408;27;129643;-73
2022/10/04 06:12:55;;;;;;;3.60;1.40;;;6.00;99.90;;;6.04;100.00;97735.84;5041353;27;130021;-72
2022/10/04 06:15:53;;;;;;;2.28;1.10;;;6.00;99.90;;;6.09;100.00;97732.97;5027949;27;120458;-75
2022/10/04 06:19:11;;;;;;;1.85;1.02;;;6.00;99.90;;;6.08;100.00;97740.25;5062692;27;120405;-73
2022/10/04 06:22:01;;;;;;;1.58;1.00;;;6.10;99.90;;;6.29;100.00;97742.19;5046436;27;130817;-73
2022/10/04 06:24:35;;;;;;;2.33;1.50;;;6.20;99.90;;;6.23;100.00;97748.91;5061823;27;129701;-73
2022/10/04 06:27:11;;;;;;;2.15;1.50;;;6.10;99.90;;;6.29;100.00;97752.97;5060621;27;122664;-73
2022/10/04 06:29:45;;;;;;;2.10;1.20;;;6.20;99.90;;;6.34;100.00;97750.09;5063979;27;120818;-73
2022/10/04 06:33:13;;;;;;;2.45;1.40;;;6.10;99.90;;;6.28;100.00;97757.59;5062024;27;130106;-73
2022/10/04 06:36:14;;;;;;;2.22;1.30;;;6.10;99.90;;;6.61;100.00;97765.00;5046780;27;128717;-73
2022/10/04 06:39:14;;;;;;;3.15;1.20;;;6.40;99.90;;;6.76;100.00;97765.53;5060834;27;119591;-74
2022/10/04 06:42:22;;;;;;;4.43;2.05;;;6.40;99.90;;;6.65;100.00;97771.31;5061589;27;119487;-71
2022/10/04 06:45:20;;;;;;;2.42;1.42;;;6.30;99.90;;;6.56;100.00;97775.16;5061691;27;130276;-74
2022/10/04 06:48:34;;;;;;;1.58;0.98;;;6.20;99.90;;;6.53;100.00;97779.31;5061711;27;129958;-75
2022/10/04 06:51:17;;;;;;;2.65;1.50;;;6.30;99.90;;;6.71;100.00;97780.00;5061585;27;120099;-72
2022/10/04 06:54:04;;;;;;;2.75;1.50;;;6.40;99.90;;;6.72;100.00;97786.19;5061147;27;119765;-74
2022/10/04 06:57:01;;;;;;;2.33;1.33;;;6.40;99.90;;;6.69;100.00;97784.94;5060157;27;130266;-73
2022/10/04 06:59:51;;;;;;;3.60;1.70;;;6.40;99.90;;;6.82;100.00;97794.69;5061178;27;129790;-71
2022/10/04 07:02:26;;;;;;;3.53;2.10;;;6.50;99.90;;;6.95;100.00;97792.03;5029449;27;118578;-72
2022/10/04 07:05:01;;;;;;;3.88;2.00;;;6.60;99.90;;;6.95;100.00;97800.13;5062248;27;119074;-71
2022/10/04 07:07:35;;;;;;;4.55;2.22;;;6.60;99.90;;;6.93;100.00;97797.75;5061104;27;129822;-73
2022/10/04 07:10:46;;;;;;;3.00;1.70;;;6.60;99.90;;;7.11;100.00;97801.13;5061168;27;129415;-72
2022/10/04 07:13:39;;;;;;;2.60;1.52;;;6.60;99.90;;;7.19;100.00;97805.63;5060264;27;119371;-74
2022/10/04 07:16:31;;;;;;;4.25;1.80;;;6.60;99.90;;;7.40;100.00;97799.44;5063404;27;119267;-73
2022/10/04 07:19:21;;;;;;;5.20;2.38;;;6.80;99.90;;;7.30;100.00;97818.75;5060933;27;129556;-73
2022/10/04 07:21:59;;;;;;;2.03;1.35;;;6.80;99.90;;;7.33;100.00;97820.78;5060923;27;130030;-75
2022/10/04 07:24:53;;;;;;;2.88;1.50;;;6.70;99.90;;;7.04;100.00;97821.66;5061844;27;121812;-75
2022/10/04 07:27:30;;;;;;;1.90;1.17;;;6.70;99.90;;;6.97;100.00;97824.88;5061197;27;123086;-73
2022/10/04 07:30:02;;;;;;;2.13;1.52;;;6.60;99.90;;;6.84;100.00;97829.41;5045735;27;128982;-73
2022/10/04 07:32:35;;;;;;;3.28;1.50;;;6.60;99.90;;;6.82;100.00;97835.13;5061242;27;129701;-72
2022/10/04 07:35:16;;;;;;;2.60;1.50;;;6.60;99.90;;;6.68;100.00;97845.34;5061458;27;120417;-73
2022/10/04 07:37:53;;;;;;;2.35;1.33;;;6.60;99.90;;;6.57;100.00;97838.75;5042606;27;119282;-72
2022/10/04 07:40:28;;;;;;;5.65;2.20;;;6.50;99.90;;;6.68;100.00;97856.13;5060422;27;129829;-73
2022/10/04 07:43:05;;;;;;;2.22;1.52;;;6.60;99.90;;;6.72;100.00;97857.06;5060801;27;130466;-73
2022/10/04 07:45:35;;;;;;;2.47;1.60;;;6.60;99.90;;;6.78;100.00;97866.53;5045281;27;118140;-73
2022/10/04 07:48:15;;;;;;;3.20;1.42;;;6.60;99.90;;;6.83;100.00;97869.03;5060949;27;119581;-72
2022/10/04 07:50:59;;;;;;;3.42;1.88;;;6.60;99.90;;;6.84;100.00;97876.03;5058759;27;129789;-72
2022/10/04 07:53:37;;;;;;;1.75;1.17;;;6.70;99.90;;;7.01;100.00;97874.31;5045265;27;129664;-73
2022/10/04 07:56:11;;;;;;;3.70;2.30;;;6.70;99.90;;;7.26;100.00;97880.69;5042104;27;119600;-71
2022/10/04 07:58:53;;;;;;;2.15;1.30;;;6.90;99.90;;;7.13;100.00;97882.50;5060805;27;119268;-72
2022/10/04 08:01:33;;;;;;;2.72;1.67;;;6.80;99.90;;;7.24;100.00;97876.72;5059103;27;129772;-70
2022/10/04 08:04:32;;;;;;;3.13;1.67;;;6.80;99.90;;;7.12;100.00;97875.53;5060524;27;130143;-71
2022/10/04 08:07:05;;;;;;;2.08;1.30;;;6.70;99.90;;;6.96;100.00;97888.00;5060478;27;120298;-70
2022/10/04 08:09:59;;;;;;;2.70;1.58;;;6.70;99.90;;;6.85;100.00;97893.00;5060966;27;119478;-70
2022/10/04 08:12:43;;;;;;;5.85;2.95;;;6.70;99.90;;;6.88;100.00;97896.94;5062306;27;131706;-71
2022/10/04 08:15:36;;;;;;;4.70;1.95;;;6.60;99.90;;;6.85;100.00;97890.28;5045390;27;129878;-74
2022/10/04 08:18:39;;;;;;;3.13;1.40;;;6.50;99.90;;;6.70;100.00;97896.25;5058446;27;122159;-72
2022/10/04 08:21:09;;;;;;;3.35;1.50;;;6.40;99.90;;;6.71;100.00;97914.00;5059576;27;122198;-72
2022/10/04 08:24:13;;;;;;;3.80;1.73;;;6.50;99.90;;;6.64;100.00;97903.72;5057397;27;130489;-74
2022/10/04 08:27:03;;;;;;;4.78;1.70;;;6.40;99.90;;;6.68;100.00;97910.03;5059938;27;130183;-71
2022/10/04 08:30:05;;;;;;;3.95;1.83;;;6.40;99.90;;;6.70;100.00;97915.91;5060224;27;119855;-71
2022/10/04 08:33:05;;;;;;;4.07;2.03;;;6.50;99.90;;;6.77;100.00;97918.88;5041595;27;118553;-71
2022/10/04 08:35:37;;;;;;;5.07;2.30;;;6.60;99.90;;;6.95;100.00;97918.78;5039113;27;130970;-71
2022/10/04 08:38:42;;;;;;;5.22;1.92;;;6.60;99.90;;;6.93;100.00;97921.03;5039632;27;129487;-72
2022/10/04 08:41:54;;;;;;;3.42;1.80;;;6.70;99.90;;;7.13;100.00;97933.75;5039571;27;120409;-70
2022/10/04 08:45:21;;;;;;;3.13;1.85;;;6.60;99.90;;;7.19;100.00;97940.53;5021387;27;119476;-72
2022/10/04 08:48:53;;;;;;;4.07;1.80;;;6.70;99.90;;;7.48;100.00;97936.25;5038086;27;129742;-74
2022/10/04 08:52:05;;;;;;;5.63;2.50;;;6.90;99.90;;;7.39;100.00;97943.59;5024051;27;129059;-74
2022/10/04 08:55:36;;;;;;;5.38;2.20;;;6.90;99.90;;;7.26;100.00;97955.44;5039317;27;119552;-72
2022/10/04 08:58:22;;;;;;;5.05;2.38;;;6.90;99.90;;;7.64;100.00;97955.34;5039437;27;119850;-74
2022/10/04 09:01:19;;;;;;;5.18;2.28;;;7.10;99.90;;;7.71;100.00;97954.78;5038722;27;129850;-71
2022/10/04 09:04:36;;;;;;;3.53;1.90;;;7.20;99.90;;;7.83;100.00;97962.97;5023949;27;129621;-74
2022/10/04 09:07:35;;;;;;;2.25;1.45;;;7.20;99.90;;;7.91;100.00;97970.19;5019782;27;119494;-73
2022/10/04 09:10:49;;;;;;;2.30;1.40;;;7.20;99.90;;;7.59;100.00;97973.63;5042913;27;119643;-73
2022/10/04 09:13:52;;;;;;;2.92;1.70;;;7.20;99.90;;;7.58;100.00;97977.47;4930036;28;129744;-70
2022/10/04 09:16:29;;;;;;;3.53;1.45;;;7.20;99.90;;;7.42;100.00;97980.75;4946401;28;132159;-71
2022/10/04 09:19:20;;;;;;;2.28;1.55;;;7.10;99.90;;;7.38;100.00;97985.19;4945377;28;121241;-72
2022/10/04 09:22:18;;;;;;;5.13;1.80;;;7.20;99.90;;;7.32;100.00;97994.59;4959933;28;121715;-71
2022/10/04 09:25:24;;;;;;;4.43;1.95;;;7.10;99.90;;;7.49;100.00;97997.19;4946222;28;129363;-71
2022/10/04 09:28:19;;;;;;;3.60;1.75;;;7.20;99.90;;;7.88;100.00;98008.69;4961385;28;129127;-71
2022/10/04 09:31:08;;;;;;;4.13;1.70;;;7.50;99.50;;;8.10;100.00;97998.63;4960802;28;119771;-73
2022/10/04 09:34:22;;;;;;;4.80;2.13;;;7.60;99.90;;;8.09;100.00;98002.47;4960073;28;119367;-70
2022/10/04 09:37:32;;;;;;;3.25;1.90;;;7.60;93.70;;;8.08;100.00;98001.66;4960250;28;130291;-71
2022/10/04 09:40:53;;;;;;;2.35;1.50;;;7.60;94.70;;;7.86;100.00;98010.91;4943793;28;130167;-71
2022/10/04 09:44:19;;;;;;;3.45;1.55;;;7.40;99.90;;;7.72;100.00;98000.38;4974696;27;119992;-70
2022/10/04 09:47:04;;;;;;;4.13;1.67;;;7.30;99.90;;;7.59;100.00;98006.03;5042899;27;119364;-74
2022/10/04 09:50:06;;;;;;;3.95;1.55;;;7.20;99.90;;;7.72;100.00;98021.19;5045918;27;128763;-70
2022/10/04 09:52:46;;;;;;;4.25;1.80;;;7.40;99.90;;;7.80;100.00;98028.44;5033360;27;129366;-71
2022/10/04 09:55:48;;;;;;;5.38;1.98;;;7.50;99.90;;;7.83;100.00;98043.19;5062068;27;120371;-71
2022/10/04 09:58:50;;;;;;;4.05;1.92;;;7.50;99.90;;;7.89;100.00;98037.25;5062229;27;119319;-70
2022/10/04 10:01:29;;;;;;;1.83;1.30;;;7.50;99.90;;;7.73;100.00;98042.47;5061928;27;130849;-74
2022/10/04 10:04:35;;;;;;;2.13;1.40;;;7.30;99.90;;;7.67;100.00;98061.91;5061601;27;129496;-73
2022/10/04 10:07:36;;;;;;;2.22;1.38;;;7.30;99.90;;;7.69;100.00;98062.34;5061919;27;120142;-71
2022/10/04 10:13:41;;;;;;;2.90;1.42;;;7.40;99.90;;;7.84;100.00;98061.00;5061208;27;129864;-72
2022/10/04 10:16:40;;;;;;;4.47;1.55;;;7.40;99.90;;;7.95;100.00;98072.19;5054524;27;129964;-69
2022/10/04 10:19:46;;;;;;;2.33;1.40;;;7.50;99.90;;;7.66;100.00;98063.78;5025117;27;121669;-70
2022/10/04 10:22:50;;;;;;;3.97;2.03;;;7.40;99.90;;;7.71;100.00;98074.41;5041947;27;121904;-69
2022/10/04 10:25:47;;;;;;;3.80;1.40;;;7.40;98.50;;;7.66;100.00;98065.72;5043641;27;129601;-72
2022/10/04 10:28:36;;;;;;;3.13;1.67;;;7.30;99.90;;;7.58;100.00;98080.06;5040931;27;130252;-72
2022/10/04 10:31:28;;;;;;;3.22;1.70;;;7.30;99.90;;;7.49;100.00;98083.56;5041185;27;120473;-69
2022/10/04 10:34:41;;;;;;;4.20;2.20;;;7.30;99.90;;;7.47;100.00;98085.03;5041256;27;119639;-73
2022/10/04 10:37:14;;;;;;;3.72;1.95;;;7.30;99.90;;;7.63;100.00;98093.34;5040808;27;129948;-72
2022/10/04 10:40:29;;;;;;;2.13;1.30;;;7.40;99.90;;;7.79;100.00;98091.69;5026268;27;129590;-68
2022/10/04 10:43:31;;;;;;;2.40;1.17;;;7.50;99.90;;;8.57;100.00;98106.56;5040797;27;119950;-70
2022/10/04 10:46:26;;;;;;;2.03;1.35;;;7.90;95.00;;;8.50;100.00;98103.59;5040765;27;119855;-71
2022/10/04 10:49:18;;;;;;;2.42;1.48;;;7.80;88.40;;;8.36;100.00;98113.84;5039563;27;130060;-70
2022/10/04 10:52:24;;;;;;;2.05;1.27;;;7.90;97.60;;;8.47;100.00;98127.78;5040325;27;128620;-72
2022/10/04 10:55:30;;;;;;;2.78;1.70;;;7.80;97.70;;;8.35;100.00;98131.19;5047685;27;120302;-69
2022/10/04 10:58:40;;;;;;;3.00;1.40;;;7.70;99.90;;;8.96;100.00;98127.97;5061052;27;119857;-71
2022/10/04 11:01:33;;;;;;;2.42;1.33;;;8.10;99.90;;;9.26;100.00;98128.63;4996617;27;129806;-72
2022/10/04 11:04:31;;;;;;;4.35;2.05;;;8.40;88.90;;;9.46;99.96;98115.34;5060592;27;130106;-71
2022/10/04 11:07:36;;;;;;;2.85;1.63;;;8.50;53.10;;;9.96;96.89;98122.31;5060937;27;119140;-71
2022/10/04 11:11:15;;;;;;;5.65;2.53;;;8.70;48.90;;;10.02;96.16;98134.50;5061384;27;119479;-71
2022/10/04 11:14:31;;;;;;;4.63;1.83;;;9.00;28.90;;;10.21;93.85;98139.31;5060833;27;130718;-72
2022/10/04 11:17:35;;;;;;;3.95;1.58;;;8.80;36.30;;;10.12;93.05;98141.38;5060623;27;129760;-71
2022/10/04 11:21:07;;;;;;;3.78;1.40;;;8.90;28.90;;;9.67;95.10;98148.50;5059776;27;121712;-73
2022/10/04 11:24:43;;;;;;;2.08;1.33;;;8.80;28.70;;;9.33;97.22;98164.06;5048875;27;122311;-74
2022/10/04 11:27:27;;;;;;;2.92;1.58;;;8.50;33.60;;;9.05;99.55;98176.59;4977512;28;130042;-73
2022/10/04 11:30:23;;;;;;;4.35;2.10;;;8.40;38.10;;;8.95;100.00;98172.41;5052829;27;129590;-70
2022/10/04 11:33:40;;;;;;;4.85;2.47;;;8.30;58.60;;;8.74;100.00;98173.22;5064115;27;123920;-70
2022/10/04 11:36:41;;;;;;;3.80;2.00;;;8.20;60.20;;;8.55;100.00;98192.59;5060666;27;119554;-71
2022/10/04 11:39:56;;;;;;;4.97;2.13;;;8.10;80.10;;;8.34;100.00;98189.88;5042100;27;129425;-69
2022/10/04 11:42:44;;;;;;;4.30;2.53;;;8.00;82.30;;;8.32;100.00;98188.59;5063372;27;129719;-69